createdAt,value
2019-03-24T00:00:01.787Z,102830.78
2019-03-24T00:02:30.358Z,102836.98
2019-03-24T00:04:58.986Z,102838.25
2019-03-24T00:07:27.498Z,102835.27
2019-03-24T00:09:56.129Z,102838.80
2019-03-24T00:12:24.827Z,102843.36
2019-03-24T00:14:53.392Z,102838.79
2019-03-24T00:17:22.044Z,102831.20
2019-03-24T00:19:50.537Z,102828.43
2019-03-24T00:22:19.685Z,102825.45
2019-03-24T00:24:48.304Z,102820.29
2019-03-24T00:27:16.808Z,102824.36
2019-03-24T00:29:45.434Z,102822.51
2019-03-24T00:32:14.039Z,102813.33
2019-03-24T00:34:42.735Z,102815.49
2019-03-24T00:37:11.206Z,102815.99
2019-03-24T00:39:39.755Z,102823.23
2019-03-24T00:42:08.354Z,102818.88
2019-03-24T00:44:36.902Z,102813.06
2019-03-24T00:47:05.476Z,102812.15
2019-03-24T00:49:34.142Z,102812.70
2019-03-24T00:52:02.718Z,102807.25
2019-03-24T00:54:31.214Z,102810.52
2019-03-24T00:56:59.855Z,102813.11
2019-03-24T00:59:28.400Z,102819.62
2019-03-24T01:01:57.010Z,102803.58
2019-03-24T01:04:25.595Z,102805.58
2019-03-24T01:06:54.625Z,102807.32
2019-03-24T01:09:23.577Z,102803.92
2019-03-24T01:11:52.171Z,102807.32
2019-03-24T01:14:21.153Z,102807.00
2019-03-24T01:16:49.680Z,102805.63
2019-03-24T01:19:18.269Z,102796.41
2019-03-24T01:21:46.907Z,102806.38
2019-03-24T01:24:15.412Z,102804.59
2019-03-24T01:26:43.935Z,102797.80
2019-03-24T01:29:12.614Z,102793.42
2019-03-24T01:31:41.480Z,102793.69
2019-03-24T01:34:10.465Z,102791.30
2019-03-24T01:36:39.284Z,102788.67
2019-03-24T01:39:08.500Z,102786.50
2019-03-24T01:41:37.025Z,102785.95
2019-03-24T01:44:05.635Z,102789.25
2019-03-24T01:46:34.222Z,102790.82
2019-03-24T01:49:02.734Z,102793.42
2019-03-24T01:51:31.316Z,102790.55
2019-03-24T01:53:59.971Z,102785.87
2019-03-24T01:56:28.482Z,102785.61
2019-03-24T01:58:57.025Z,102783.98
2019-03-24T02:01:25.757Z,102784.19
2019-03-24T02:03:54.319Z,102786.84
2019-03-24T02:06:22.836Z,102787.19
2019-03-24T02:08:52.161Z,102782.52
2019-03-24T02:11:20.884Z,102789.00
2019-03-24T02:13:49.421Z,102788.41
2019-03-24T02:16:18.046Z,102781.90
2019-03-24T02:18:46.656Z,102771.45
2019-03-24T02:21:15.246Z,102779.88
2019-03-24T02:23:43.824Z,102782.23
2019-03-24T02:26:12.307Z,102783.84
2019-03-24T02:28:40.855Z,102775.59
2019-03-24T02:31:09.371Z,102771.66
2019-03-24T02:33:37.936Z,102775.86
2019-03-24T02:36:06.454Z,102769.63
2019-03-24T02:38:35.072Z,102768.40
2019-03-24T02:41:03.723Z,102761.66
2019-03-24T02:43:32.325Z,102757.92
2019-03-24T02:46:00.875Z,102753.66
2019-03-24T02:48:29.510Z,102748.02
2019-03-24T02:50:58.011Z,102746.68
2019-03-24T02:53:26.635Z,102750.86
2019-03-24T02:55:55.210Z,102747.64
2019-03-24T02:58:23.840Z,102749.45
2019-03-24T03:00:53.245Z,102749.45
2019-03-24T03:03:21.771Z,102751.69
2019-03-24T03:05:50.615Z,102756.20
2019-03-24T03:08:19.195Z,102752.91
2019-03-24T03:10:47.791Z,102754.45
2019-03-24T03:13:16.627Z,102756.55
2019-03-24T03:15:45.226Z,102756.36
2019-03-24T03:18:13.777Z,102751.34
2019-03-24T03:20:42.373Z,102751.95
2019-03-24T03:23:10.992Z,102750.39
2019-03-24T03:25:39.653Z,102737.73
2019-03-24T03:28:08.226Z,102740.39
2019-03-24T03:30:36.860Z,102743.42
2019-03-24T03:33:05.536Z,102734.31
2019-03-24T03:35:34.110Z,102733.59
2019-03-24T03:38:02.599Z,102736.25
2019-03-24T03:40:31.405Z,102738.20
2019-03-24T03:42:59.918Z,102733.53
2019-03-24T03:45:29.398Z,102731.77
2019-03-24T03:47:57.933Z,102728.47
2019-03-24T03:50:26.565Z,102724.33
2019-03-24T03:52:55.337Z,102725.13
2019-03-24T03:55:24.316Z,102729.53
2019-03-24T03:57:52.926Z,102724.39
2019-03-24T04:00:24.487Z,102723.92
2019-03-24T04:02:52.974Z,102724.75
2019-03-24T04:05:21.417Z,102720.24
2019-03-24T04:07:49.960Z,102715.88
2019-03-24T04:10:18.534Z,102726.31
2019-03-24T04:12:47.055Z,102723.22
2019-03-24T04:15:15.656Z,102717.19
2019-03-24T04:17:44.238Z,102717.06
2019-03-24T04:20:12.945Z,102717.94
2019-03-24T04:22:41.774Z,102710.17
2019-03-24T04:25:10.487Z,102699.53
2019-03-24T04:27:39.224Z,102695.19
2019-03-24T04:30:08.287Z,102690.62
2019-03-24T04:32:36.883Z,102689.73
2019-03-24T04:35:07.473Z,102690.74
2019-03-24T04:37:36.052Z,102694.98
2019-03-24T04:40:06.544Z,102688.03
2019-03-24T04:42:35.143Z,102692.52
2019-03-24T04:45:03.925Z,102688.08
2019-03-24T04:47:32.471Z,102690.13
2019-03-24T04:50:00.981Z,102693.34
2019-03-24T04:52:29.535Z,102690.86
2019-03-24T04:54:58.046Z,102695.42
2019-03-24T04:57:26.819Z,102696.36
2019-03-24T04:59:56.323Z,102699.30
2019-03-24T05:02:25.987Z,102703.73
2019-03-24T05:04:54.488Z,102696.42
2019-03-24T05:07:23.665Z,102698.85
2019-03-24T05:09:54.437Z,102701.91
2019-03-24T05:12:22.755Z,102695.16
2019-03-24T05:14:51.267Z,102692.53
2019-03-24T05:17:27.059Z,102689.83
2019-03-24T05:19:50.178Z,102691.81
2019-03-24T05:22:19.046Z,102695.80
2019-03-24T05:24:47.567Z,102695.03
2019-03-24T05:27:16.434Z,102699.56
2019-03-24T05:29:45.048Z,102697.73
2019-03-24T05:32:13.590Z,102699.27
2019-03-24T05:34:42.070Z,102700.80
2019-03-24T05:37:10.591Z,102702.17
2019-03-24T05:39:39.227Z,102701.44
2019-03-24T05:42:07.821Z,102703.63
2019-03-24T05:44:36.439Z,102700.38
2019-03-24T05:47:04.978Z,102707.42
2019-03-24T05:49:35.039Z,102704.73
2019-03-24T05:52:03.515Z,102702.84
2019-03-24T05:54:32.040Z,102699.56
2019-03-24T05:57:00.615Z,102707.34
2019-03-24T05:59:29.253Z,102707.33
2019-03-24T06:01:57.894Z,102704.80
2019-03-24T06:04:27.023Z,102706.97
2019-03-24T06:06:55.549Z,102703.27
2019-03-24T06:09:24.094Z,102705.97
2019-03-24T06:11:52.874Z,102711.30
2019-03-24T06:14:21.448Z,102699.29
2019-03-24T06:16:50.095Z,102698.67
2019-03-24T06:19:18.664Z,102693.58
2019-03-24T06:21:47.209Z,102691.41
2019-03-24T06:24:15.664Z,102691.55
2019-03-24T06:26:44.232Z,102688.77
2019-03-24T06:29:12.855Z,102691.09
2019-03-24T06:31:41.479Z,102685.67
2019-03-24T06:34:09.997Z,102688.33
2019-03-24T06:36:38.547Z,102681.13
2019-03-24T06:39:08.253Z,102679.06
2019-03-24T06:41:36.874Z,102679.43
2019-03-24T06:44:05.504Z,102680.52
2019-03-24T06:46:34.055Z,102672.05
2019-03-24T06:49:02.555Z,102670.20
2019-03-24T06:51:31.148Z,102665.78
2019-03-24T06:53:59.785Z,102665.57
2019-03-24T06:56:28.465Z,102668.24
2019-03-24T06:58:56.980Z,102669.05
2019-03-24T07:01:25.621Z,102669.05
2019-03-24T07:03:54.142Z,102650.73
2019-03-24T07:06:22.822Z,102639.43
2019-03-24T07:08:51.409Z,102637.09
2019-03-24T07:11:20.052Z,102637.80
2019-03-24T07:13:48.754Z,102638.08
2019-03-24T07:16:18.563Z,102637.27
2019-03-24T07:18:47.348Z,102627.74
2019-03-24T07:21:16.029Z,102631.78
2019-03-24T07:23:44.616Z,102631.17
2019-03-24T07:26:13.099Z,102623.61
2019-03-24T07:28:41.675Z,102620.81
2019-03-24T07:31:10.267Z,102614.91
2019-03-24T07:33:39.206Z,102612.30
2019-03-24T07:36:07.797Z,102606.48
2019-03-24T07:38:36.383Z,102602.79
2019-03-24T07:41:04.999Z,102599.47
2019-03-24T07:43:33.536Z,102596.49
2019-03-24T07:46:02.170Z,102601.61
2019-03-24T07:48:30.815Z,102601.35
2019-03-24T07:50:59.424Z,102604.86
2019-03-24T07:53:27.958Z,102600.27
2019-03-24T07:55:56.581Z,102598.57
2019-03-24T07:58:25.365Z,102588.83
2019-03-24T08:00:53.940Z,102588.29
2019-03-24T08:03:22.575Z,102593.09
2019-03-24T08:05:51.234Z,102598.34
2019-03-24T08:08:19.855Z,102602.27
2019-03-24T08:10:48.492Z,102601.51
2019-03-24T08:13:17.076Z,102598.02
2019-03-24T08:15:45.683Z,102597.84
2019-03-24T08:18:14.316Z,102602.09
2019-03-24T08:20:42.994Z,102599.24
2019-03-24T08:23:11.589Z,102602.61
2019-03-24T08:25:40.159Z,102611.41
2019-03-24T08:28:08.684Z,102617.84
2019-03-24T08:30:37.296Z,102622.98
2019-03-24T08:33:05.945Z,102627.33
2019-03-24T08:35:34.549Z,102626.77
2019-03-24T08:38:03.178Z,102626.28
2019-03-24T08:40:31.805Z,102622.81
2019-03-24T08:43:00.704Z,102624.77
2019-03-24T08:45:30.531Z,102617.34
2019-03-24T08:47:59.850Z,102617.33
2019-03-24T08:50:28.621Z,102620.56
2019-03-24T08:52:57.510Z,102619.84
2019-03-24T08:55:26.099Z,102619.84
2019-03-24T08:57:54.743Z,102612.87
2019-03-24T09:00:30.519Z,102607.06
2019-03-24T09:02:53.678Z,102610.27
2019-03-24T09:05:22.265Z,102609.29
2019-03-24T09:07:50.865Z,102613.42
2019-03-24T09:10:19.753Z,102616.27
2019-03-24T09:12:48.356Z,102613.94
2019-03-24T09:15:17.042Z,102612.50
2019-03-24T09:17:45.695Z,102610.35
2019-03-24T09:20:15.033Z,102610.80
2019-03-24T09:22:43.676Z,102601.24
2019-03-24T09:25:12.551Z,102596.71
2019-03-24T09:27:41.234Z,102597.78
2019-03-24T09:30:31.767Z,102594.84
2019-03-24T09:33:00.496Z,102589.63
2019-03-24T09:35:29.894Z,102590.70
2019-03-24T09:37:58.730Z,102594.97
2019-03-24T09:40:29.192Z,102591.31
2019-03-24T09:43:00.429Z,102591.71
2019-03-24T09:45:30.347Z,102591.09
2019-03-24T09:47:59.169Z,102595.98
2019-03-24T09:50:27.799Z,102600.11
2019-03-24T09:52:56.506Z,102591.11
2019-03-24T09:55:25.221Z,102596.39
2019-03-24T09:57:53.823Z,102596.22
2019-03-24T10:00:22.509Z,102588.59
2019-03-24T10:02:51.414Z,102588.59
2019-03-24T10:05:19.945Z,102583.49
2019-03-24T10:07:48.578Z,102585.23
2019-03-24T10:10:17.174Z,102587.97
2019-03-24T10:12:45.844Z,102594.27
2019-03-24T10:15:14.451Z,102604.30
2019-03-24T10:17:43.422Z,102589.87
2019-03-24T10:20:12.348Z,102604.52
2019-03-24T10:22:40.959Z,102599.71
2019-03-24T10:25:09.759Z,102593.52
2019-03-24T10:27:38.481Z,102586.55
2019-03-24T10:30:07.768Z,102582.41
2019-03-24T10:32:36.366Z,102576.55
2019-03-24T10:35:06.905Z,102559.40
2019-03-24T10:37:35.658Z,102554.83
2019-03-24T10:40:05.404Z,102534.45
2019-03-24T10:42:33.981Z,102530.77
2019-03-24T10:45:03.955Z,102537.48
2019-03-24T10:47:33.226Z,102543.45
2019-03-24T10:50:01.849Z,102543.08
2019-03-24T10:52:30.444Z,102543.99
2019-03-24T10:54:59.148Z,102547.92
2019-03-24T10:57:27.746Z,102548.84
2019-03-24T10:59:56.307Z,102544.69
2019-03-24T11:02:24.822Z,102540.05
2019-03-24T11:04:53.374Z,102529.29
2019-03-24T11:07:21.968Z,102531.45
2019-03-24T11:09:50.591Z,102530.09
2019-03-24T11:12:19.217Z,102532.89
2019-03-24T11:14:47.835Z,102538.77
2019-03-24T11:17:16.327Z,102532.30
2019-03-24T11:19:44.967Z,102534.07
2019-03-24T11:22:13.502Z,102527.98
2019-03-24T11:24:42.135Z,102523.70
2019-03-24T11:27:10.720Z,102521.52
2019-03-24T11:29:39.387Z,102511.01
2019-03-24T11:32:08.029Z,102514.46
2019-03-24T11:34:36.619Z,102523.16
2019-03-24T11:37:05.252Z,102527.02
2019-03-24T11:39:34.413Z,102529.85
2019-03-24T11:42:03.085Z,102531.09
2019-03-24T11:44:31.783Z,102520.64
2019-03-24T11:47:00.328Z,102519.85
2019-03-24T11:49:28.876Z,102523.25
2019-03-24T11:51:57.468Z,102519.36
2019-03-24T11:54:26.099Z,102512.95
2019-03-24T11:56:54.690Z,102508.36
2019-03-24T11:59:23.680Z,102508.11
2019-03-24T12:01:52.318Z,102508.61
2019-03-24T12:04:22.425Z,102501.89
2019-03-24T12:06:51.016Z,102504.95
2019-03-24T12:09:19.740Z,102498.23
2019-03-24T12:11:48.294Z,102498.61
2019-03-24T12:14:17.015Z,102493.86
2019-03-24T12:16:45.607Z,102490.70
2019-03-24T12:19:14.292Z,102488.39
2019-03-24T12:21:42.854Z,102485.64
2019-03-24T12:24:11.463Z,102483.58
2019-03-24T12:26:39.994Z,102486.88
2019-03-24T12:29:08.849Z,102486.70
2019-03-24T12:31:37.478Z,102485.22
2019-03-24T12:34:06.319Z,102490.48
2019-03-24T12:36:35.627Z,102489.16
2019-03-24T12:39:05.318Z,102493.14
2019-03-24T12:41:33.955Z,102498.48
2019-03-24T12:44:02.915Z,102497.76
2019-03-24T12:46:31.550Z,102499.47
2019-03-24T12:49:00.130Z,102497.68
2019-03-24T12:51:28.640Z,102497.87
2019-03-24T12:53:57.534Z,102503.66
2019-03-24T12:56:26.140Z,102500.89
2019-03-24T12:58:54.658Z,102501.08
2019-03-24T13:01:23.422Z,102504.94
2019-03-24T13:03:52.110Z,102502.05
2019-03-24T13:06:20.804Z,102502.05
2019-03-24T13:08:49.558Z,102501.69
2019-03-24T13:11:18.158Z,102493.50
2019-03-24T13:13:46.719Z,102493.05
2019-03-24T13:16:15.241Z,102483.49
2019-03-24T13:18:43.972Z,102489.56
2019-03-24T13:21:12.633Z,102493.14
2019-03-24T13:23:41.221Z,102485.45
2019-03-24T13:26:09.930Z,102493.17
2019-03-24T13:28:38.563Z,102485.32
2019-03-24T13:31:07.187Z,102481.37
2019-03-24T13:33:36.801Z,102472.53
2019-03-24T13:36:07.177Z,102472.99
2019-03-24T13:38:36.168Z,102472.48
2019-03-24T13:41:04.755Z,102469.94
2019-03-24T13:43:33.399Z,102467.78
2019-03-24T13:46:01.895Z,102464.61
2019-03-24T13:48:30.744Z,102455.16
2019-03-24T13:50:59.331Z,102454.39
2019-03-24T13:53:27.904Z,102443.59
2019-03-24T13:55:56.690Z,102442.88
2019-03-24T13:58:25.353Z,102444.59
2019-03-24T14:00:53.998Z,102445.77
2019-03-24T14:03:22.667Z,102440.72
2019-03-24T14:05:51.345Z,102451.63
2019-03-24T14:08:20.432Z,102445.31
2019-03-24T14:10:49.097Z,102441.31
2019-03-24T14:13:17.562Z,102424.69
2019-03-24T14:15:46.158Z,102434.38
2019-03-24T14:18:14.691Z,102430.22
2019-03-24T14:20:44.070Z,102425.91
2019-03-24T14:23:12.760Z,102415.71
2019-03-24T14:25:41.546Z,102412.77
2019-03-24T14:28:10.124Z,102409.79
2019-03-24T14:30:41.028Z,102416.89
2019-03-24T14:33:09.686Z,102417.91
2019-03-24T14:35:38.239Z,102411.34
2019-03-24T14:38:06.829Z,102399.69
2019-03-24T14:40:35.461Z,102397.47
2019-03-24T14:43:04.150Z,102390.66
2019-03-24T14:45:32.808Z,102385.16
2019-03-24T14:48:01.924Z,102389.72
2019-03-24T14:50:30.607Z,102388.78
2019-03-24T14:52:59.178Z,102387.67
2019-03-24T14:55:27.835Z,102385.69
2019-03-24T14:57:56.594Z,102385.10
2019-03-24T15:00:36.471Z,102378.18
2019-03-24T15:03:05.168Z,102378.98
2019-03-24T15:05:33.758Z,102379.23
2019-03-24T15:08:03.790Z,102375.94
2019-03-24T15:10:32.444Z,102376.42
2019-03-24T15:13:01.112Z,102372.25
2019-03-24T15:15:29.733Z,102378.30
2019-03-24T15:17:58.310Z,102380.88
2019-03-24T15:20:26.887Z,102382.80
2019-03-24T15:22:55.526Z,102368.52
2019-03-24T15:25:24.116Z,102373.04
2019-03-24T15:27:52.858Z,102369.42
2019-03-24T15:30:21.514Z,102366.84
2019-03-24T15:32:50.216Z,102369.17
2019-03-24T15:35:18.818Z,102370.22
2019-03-24T15:37:47.423Z,102367.80
2019-03-24T15:40:16.310Z,102365.86
2019-03-24T15:42:44.967Z,102363.75
2019-03-24T15:45:13.652Z,102363.00
2019-03-24T15:47:42.268Z,102358.21
2019-03-24T15:50:11.276Z,102363.26
2019-03-24T15:52:39.975Z,102350.32
2019-03-24T15:55:08.859Z,102353.17
2019-03-24T15:57:37.490Z,102351.48
2019-03-24T16:00:08.564Z,102356.10
2019-03-24T16:02:37.194Z,102357.76
2019-03-24T16:05:07.026Z,102356.57
2019-03-24T16:07:35.577Z,102360.56
2019-03-24T16:10:06.679Z,102349.23
2019-03-24T16:12:35.453Z,102352.43
2019-03-24T16:15:07.905Z,102346.98
2019-03-24T16:17:36.597Z,102342.52
2019-03-24T16:20:07.631Z,102344.95
2019-03-24T16:22:36.222Z,102335.50
2019-03-24T16:25:07.039Z,102337.12
2019-03-24T16:27:36.761Z,102339.95
2019-03-24T16:30:07.250Z,102336.31
2019-03-24T16:32:35.833Z,102341.67
2019-03-24T16:35:05.646Z,102329.20
2019-03-24T16:37:34.219Z,102317.67
2019-03-24T16:40:02.846Z,102322.30
2019-03-24T16:42:31.542Z,102317.86
2019-03-24T16:45:00.415Z,102318.09
2019-03-24T16:47:29.054Z,102314.81
2019-03-24T16:49:57.667Z,102318.49
2019-03-24T16:52:26.287Z,102319.66
2019-03-24T16:54:54.954Z,102320.36
2019-03-24T16:57:23.544Z,102317.23
2019-03-24T16:59:52.308Z,102313.23
2019-03-24T17:02:20.905Z,102313.08
2019-03-24T17:04:49.488Z,102309.69
2019-03-24T17:07:18.269Z,102305.80
2019-03-24T17:09:46.865Z,102310.42
2019-03-24T17:12:15.536Z,102311.91
2019-03-24T17:14:44.167Z,102317.29
2019-03-24T17:17:13.038Z,102320.14
2019-03-24T17:19:41.908Z,102315.28
2019-03-24T17:22:10.462Z,102315.14
2019-03-24T17:24:39.002Z,102318.67
2019-03-24T17:27:07.718Z,102310.42
2019-03-24T17:29:36.307Z,102318.42
2019-03-24T17:32:04.955Z,102318.83
2019-03-24T17:34:33.617Z,102317.86
2019-03-24T17:37:02.223Z,102315.58
2019-03-24T17:39:30.862Z,102319.44
2019-03-24T17:41:59.536Z,102321.64
2019-03-24T17:44:28.079Z,102315.89
2019-03-24T17:46:56.707Z,102314.31
2019-03-24T17:49:25.384Z,102314.28
2019-03-24T17:52:00.719Z,102322.99
2019-03-24T17:54:24.229Z,102322.42
2019-03-24T17:56:52.789Z,102329.41
2019-03-24T17:59:21.325Z,102323.97
2019-03-24T18:01:49.961Z,102329.77
2019-03-24T18:04:24.837Z,102327.12
2019-03-24T18:06:48.968Z,102331.20
2019-03-24T18:09:17.545Z,102335.56
2019-03-24T18:11:46.132Z,102328.80
2019-03-24T18:14:15.043Z,102333.69
2019-03-24T18:16:43.681Z,102344.58
2019-03-24T18:19:13.257Z,102335.91
2019-03-24T18:21:41.921Z,102336.72
2019-03-24T18:24:10.482Z,102336.45
2019-03-24T18:26:39.079Z,102337.25
2019-03-24T18:29:07.904Z,102334.53
2019-03-24T18:31:36.535Z,102338.63
2019-03-24T18:34:05.187Z,102340.78
2019-03-24T18:36:33.847Z,102346.73
2019-03-24T18:39:02.369Z,102346.75
2019-03-24T18:41:30.953Z,102350.79
2019-03-24T18:43:59.727Z,102361.60
2019-03-24T18:46:28.423Z,102358.60
2019-03-24T18:48:58.349Z,102351.30
2019-03-24T18:51:27.015Z,102352.05
2019-03-24T18:53:55.719Z,102353.64
2019-03-24T18:56:24.278Z,102350.36
2019-03-24T18:58:52.810Z,102353.62
2019-03-24T19:01:21.353Z,102353.86
2019-03-24T19:03:50.074Z,102356.91
2019-03-24T19:06:18.648Z,102347.28
2019-03-24T19:08:47.271Z,102356.46
2019-03-24T19:11:15.877Z,102354.25
2019-03-24T19:16:30.117Z,102364.15
2019-03-24T19:18:58.631Z,102357.59
2019-03-24T19:21:27.187Z,102358.33
2019-03-24T19:23:56.006Z,102355.54
2019-03-24T19:26:24.657Z,102353.37
2019-03-24T19:28:53.303Z,102353.86
2019-03-24T19:31:21.916Z,102348.22
2019-03-24T19:33:50.519Z,102346.34
2019-03-24T19:38:59.822Z,102354.40
2019-03-24T19:41:28.477Z,102349.36
2019-03-24T19:43:57.053Z,102347.66
2019-03-24T19:46:27.566Z,102343.74
2019-03-24T19:48:56.660Z,102353.11
2019-03-24T19:51:25.307Z,102353.11
2019-03-24T19:53:53.966Z,102355.39
2019-03-24T19:56:22.926Z,102353.72
2019-03-24T19:58:51.556Z,102358.38
2019-03-24T20:01:20.214Z,102350.03
2019-03-24T20:03:48.707Z,102358.59
2019-03-24T20:06:17.274Z,102350.62
2019-03-24T20:08:46.071Z,102353.00
2019-03-24T20:11:14.848Z,102353.00
2019-03-24T20:13:43.442Z,102355.03
2019-03-24T20:16:12.411Z,102347.59
2019-03-24T20:18:40.932Z,102351.28
2019-03-24T20:21:09.570Z,102358.64
2019-03-24T20:23:38.082Z,102352.92
2019-03-24T20:26:06.698Z,102360.45
2019-03-24T20:28:35.286Z,102359.77
2019-03-24T20:31:03.908Z,102358.81
2019-03-24T20:33:32.689Z,102356.39
2019-03-24T20:36:01.229Z,102350.98
2019-03-24T20:38:29.864Z,102346.13
2019-03-24T20:40:58.409Z,102353.20
2019-03-24T20:43:27.830Z,102353.26
2019-03-24T20:45:56.516Z,102351.47
2019-03-24T20:48:25.182Z,102355.08
2019-03-24T20:50:53.801Z,102346.88
2019-03-24T20:53:22.354Z,102345.76
2019-03-24T20:55:50.931Z,102347.27
2019-03-24T20:58:19.474Z,102340.77
2019-03-24T21:00:48.082Z,102342.95
2019-03-24T21:03:16.691Z,102341.98
2019-03-24T21:05:45.279Z,102345.55
2019-03-24T21:08:13.838Z,102343.41
2019-03-24T21:10:42.533Z,102341.59
2019-03-24T21:13:11.276Z,102334.50
2019-03-24T21:15:39.915Z,102335.50
2019-03-24T21:18:08.521Z,102337.24
2019-03-24T21:20:37.161Z,102326.17
2019-03-24T21:23:06.637Z,102323.24
2019-03-24T21:25:35.278Z,102325.59
2019-03-24T21:28:04.110Z,102320.86
2019-03-24T21:30:37.775Z,102317.72
2019-03-24T21:33:06.519Z,102314.36
2019-03-24T21:35:35.120Z,102312.70
2019-03-24T21:38:03.944Z,102312.70
2019-03-24T21:40:32.512Z,102316.47
2019-03-24T21:43:01.078Z,102309.98
2019-03-24T21:45:29.906Z,102309.91
2019-03-24T21:47:58.677Z,102303.58
2019-03-24T21:50:27.308Z,102302.91
2019-03-24T21:52:55.771Z,102298.50
2019-03-24T21:55:25.040Z,102297.08
2019-03-24T21:57:57.688Z,102299.83
2019-03-24T22:00:32.570Z,102285.19
2019-03-24T22:03:01.116Z,102285.19
2019-03-24T22:05:30.303Z,102284.18
2019-03-24T22:07:58.910Z,102281.89
2019-03-24T22:10:27.520Z,102283.77
2019-03-24T22:12:56.123Z,102280.00
2019-03-24T22:15:24.891Z,102286.59
2019-03-24T22:17:53.440Z,102281.81
2019-03-24T22:20:22.089Z,102281.34
2019-03-24T22:22:50.835Z,102283.44
2019-03-24T22:25:19.454Z,102275.72
2019-03-24T22:27:48.079Z,102266.21
2019-03-24T22:30:16.954Z,102262.05
2019-03-24T22:32:45.487Z,102257.20
2019-03-24T22:35:14.131Z,102259.05
2019-03-24T22:37:42.641Z,102256.58
2019-03-24T22:40:11.531Z,102251.23
2019-03-24T22:42:40.060Z,102248.41
2019-03-24T22:45:08.992Z,102240.63
2019-03-24T22:47:37.677Z,102224.90
2019-03-24T22:50:08.118Z,102228.42
2019-03-24T22:52:37.127Z,102227.95
2019-03-24T22:55:10.056Z,102221.73
2019-03-24T22:57:38.795Z,102222.87
2019-03-24T23:00:11.926Z,102222.20
2019-03-24T23:02:40.460Z,102220.24
2019-03-24T23:05:09.309Z,102219.91
2019-03-24T23:07:37.850Z,102215.25
2019-03-24T23:10:06.523Z,102211.55
2019-03-24T23:12:35.148Z,102209.84
2019-03-24T23:15:05.337Z,102203.84
2019-03-24T23:17:33.959Z,102194.95
2019-03-24T23:20:02.470Z,102197.57
2019-03-24T23:22:31.788Z,102198.41
2019-03-24T23:25:00.360Z,102188.76
2019-03-24T23:27:29.114Z,102181.92
2019-03-24T23:29:57.632Z,102181.88
2019-03-24T23:32:26.194Z,102173.16
2019-03-24T23:34:54.825Z,102168.47
2019-03-24T23:37:23.382Z,102157.53
2019-03-24T23:39:51.959Z,102158.63
2019-03-24T23:42:20.480Z,102150.27
2019-03-24T23:44:49.110Z,102147.04
2019-03-24T23:47:17.743Z,102147.02
2019-03-24T23:49:46.378Z,102140.20
2019-03-24T23:52:14.925Z,102127.80
2019-03-24T23:54:43.439Z,102125.62
2019-03-24T23:57:12.092Z,102127.67
2019-03-24T23:59:40.730Z,102127.66
